Time;durP1;ratioP1;P1;durP2;ratioP2;P2;SDS_P1;SDS_P2;PMS_P1;PMS_P2;Temp;Humidity;BMP_temperature;BMP_pressure;BME280_temperature;BME280_humidity;BME280_pressure;Samples;Min_cycle;Max_cycle;Signal;HPM_P1;HPM_P2
2021/12/17 00:03:47;;;;;;;206.68;22.08;;;;;;;7.42;94.29;103985.03;10460916;28;20040;-81
2021/12/17 00:08:52;;;;;;;211.20;22.15;;;;;;;7.37;94.04;103976.03;10453103;28;20060;-81
2021/12/17 00:13:56;;;;;;;239.20;22.00;;;;;;;7.40;94.16;103976.31;10438125;28;20094;-81
2021/12/17 00:19:23;;;;;;;196.32;21.98;;;;;;;7.36;94.27;103980.28;10450562;28;20045;-81
2021/12/17 00:48:23;;;;;;;225.57;20.73;;;;;;;7.17;95.10;103972.59;10430928;28;20485;-81
2021/12/17 00:56:55;;;;;;;216.10;20.60;;;;;;;7.19;95.10;103970.19;10441705;28;20049;-79
2021/12/17 01:02:00;;;;;;;203.93;20.23;;;;;;;7.17;94.94;103954.66;10453707;28;20045;-80
2021/12/17 01:07:05;;;;;;;241.07;20.95;;;;;;;7.13;94.73;103960.25;10430870;28;20045;-80
2021/12/17 01:12:09;;;;;;;221.52;20.25;;;;;;;7.09;95.12;103953.97;10451029;28;20073;-81
2021/12/17 01:17:38;;;;;;;212.35;20.92;;;;;;;7.10;95.10;103950.63;10438313;28;20056;-80
2021/12/17 01:23:10;;;;;;;216.70;19.13;;;;;;;7.09;95.54;103950.50;10438452;28;20053;-80
2021/12/17 01:45:34;;;;;;;298.30;22.10;;;;;;;7.02;95.71;103967.00;10465078;28;20431;-80
2021/12/17 01:56:49;;;;;;;337.60;23.88;;;;;;;7.06;95.38;103978.41;10461999;28;20510;-80
2021/12/17 02:01:25;;;;;;;305.23;22.92;;;;;;;6.99;95.37;103988.13;10455605;28;20045;-80
2021/12/17 02:06:29;;;;;;;333.90;24.35;;;;;;;6.98;95.51;103988.88;10448228;28;20048;-80
2021/12/17 02:32:20;;;;;;;491.08;25.38;;;;;;;6.93;96.04;103977.31;10485372;28;20128;-81
2021/12/17 02:37:25;;;;;;;464.88;25.25;;;;;;;6.94;95.92;103979.13;10454316;28;20041;-81
2021/12/17 02:48:16;;;;;;;357.75;20.30;;;;;;;6.82;95.77;103983.13;10469322;28;20053;-81
2021/12/17 02:53:20;;;;;;;289.00;19.58;;;;;;;6.69;96.11;103986.25;10440383;28;20044;-80
2021/12/17 02:58:24;;;;;;;213.30;17.27;;;;;;;6.70;96.24;103979.47;10442278;28;20106;-80
2021/12/17 03:03:30;;;;;;;205.52;17.75;;;;;;;6.70;95.71;103977.81;10455665;28;20055;-80
2021/12/17 03:08:32;;;;;;;165.65;16.73;;;;;;;6.67;95.92;103973.28;10430044;28;20492;-80
2021/12/17 03:13:35;;;;;;;150.75;15.23;;;;;;;6.70;96.32;103976.91;10419017;28;20049;-80
2021/12/17 03:28:45;;;;;;;219.82;15.57;;;;;;;6.61;95.81;103979.53;10475299;28;20044;-80
2021/12/17 03:33:49;;;;;;;261.05;16.75;;;;;;;6.60;96.10;103970.94;10473436;28;20045;-80
2021/12/17 03:38:51;;;;;;;230.65;15.25;;;;;;;6.57;95.50;103960.41;10458802;28;20136;-80
2021/12/17 03:43:55;;;;;;;191.07;15.05;;;;;;;6.54;95.76;103965.25;10475403;28;20049;-80
2021/12/17 03:49:06;;;;;;;314.42;17.25;;;;;;;6.61;95.65;103972.72;10460069;28;20095;-81
2021/12/17 03:54:07;;;;;;;221.52;15.50;;;;;;;6.55;95.41;103982.41;10456637;28;20059;-81
2021/12/17 03:59:10;;;;;;;249.82;16.92;;;;;;;6.70;95.72;103985.50;10464875;28;20037;-81
2021/12/17 04:04:14;;;;;;;154.25;13.90;;;;;;;6.67;95.23;103988.66;10446078;28;20056;-80
2021/12/17 04:09:19;;;;;;;167.40;14.77;;;;;;;6.66;95.03;103981.72;10462315;28;20053;-81
2021/12/17 04:15:03;;;;;;;142.70;13.43;;;;;;;6.69;94.73;103975.09;10463812;28;20045;-81
2021/12/17 04:19:56;;;;;;;122.72;12.25;;;;;;;6.61;94.49;103967.59;10443324;28;20041;-81
2021/12/17 04:24:59;;;;;;;124.25;11.80;;;;;;;6.66;94.97;103966.34;10479815;28;20044;-81
2021/12/17 04:30:02;;;;;;;126.22;12.43;;;;;;;6.61;95.14;103967.59;10483465;28;20430;-81
2021/12/17 04:35:05;;;;;;;156.10;13.85;;;;;;;6.62;94.93;103964.28;10469886;28;20076;-81
2021/12/17 04:40:18;;;;;;;230.45;16.67;;;;;;;6.61;94.94;103967.59;10468339;28;20041;-81
2021/12/17 04:45:24;;;;;;;235.30;14.82;;;;;;;6.65;94.90;103966.22;10446450;28;20049;-81
2021/12/17 05:01:13;;;;;;;341.27;15.63;;;;;;;6.39;95.91;103984.31;10458261;28;20045;-80
2021/12/17 05:06:18;;;;;;;373.40;17.92;;;;;;;6.41;96.18;103978.56;10479223;28;20095;-81
2021/12/17 05:22:11;;;;;;;316.23;17.70;;;;;;;6.39;96.81;103994.56;10470635;28;20511;-81
2021/12/17 05:27:14;;;;;;;371.38;18.80;;;;;;;6.48;97.12;103996.31;10466947;28;20048;-81
2021/12/17 05:32:26;;;;;;;350.00;16.10;;;;;;;6.51;97.10;103988.94;10435199;28;20060;-80
2021/12/17 05:37:34;;;;;;;498.83;18.25;;;;;;;6.55;97.25;103989.22;10476233;28;20047;-80
2021/12/17 05:42:36;;;;;;;366.33;16.88;;;;;;;6.53;96.63;103988.16;10465877;28;20079;-81
2021/12/17 05:47:49;;;;;;;367.08;16.67;;;;;;;6.58;96.77;103992.03;10496022;28;20135;-80
2021/12/17 05:52:51;;;;;;;449.13;18.30;;;;;;;6.50;96.74;103993.91;10424214;28;20071;-81
2021/12/17 05:57:53;;;;;;;340.83;17.27;;;;;;;6.48;97.53;103985.19;10440998;28;20037;-81
2021/12/17 06:02:57;;;;;;;224.23;15.90;;;;;;;6.45;96.96;103987.44;10473071;28;20048;-80
2021/12/17 06:08:25;;;;;;;149.45;14.60;;;;;;;6.43;97.30;103991.53;10482853;28;20044;-80
2021/12/17 06:13:27;;;;;;;126.53;14.48;;;;;;;6.48;97.35;103991.19;10463834;28;20063;-81
2021/12/17 06:18:30;;;;;;;130.95;14.52;;;;;;;6.48;97.25;103993.75;10459688;28;20041;-80
2021/12/17 06:23:32;;;;;;;123.43;13.73;;;;;;;6.49;97.42;103999.78;10456439;28;20404;-80
2021/12/17 06:28:33;;;;;;;86.38;12.73;;;;;;;6.49;97.53;103999.78;10480567;28;20041;-80
2021/12/17 06:33:36;;;;;;;79.07;12.60;;;;;;;6.48;97.73;103995.41;10487004;28;20048;-80
2021/12/17 06:38:39;;;;;;;93.40;12.85;;;;;;;6.54;97.94;103995.09;10480316;28;20091;-80
2021/12/17 06:43:43;;;;;;;77.93;11.88;;;;;;;6.48;97.97;103990.31;10444071;28;20069;-80
2021/12/17 06:48:56;;;;;;;72.45;11.50;;;;;;;6.48;97.95;103987.75;10472116;28;20107;-80
2021/12/17 07:11:13;;;;;;;58.83;11.52;;;;;;;6.45;97.97;103992.56;10454780;28;20049;-80
2021/12/17 07:17:22;;;;;;;61.58;10.85;;;;;;;6.49;98.29;103997.22;10437549;28;20524;-80
2021/12/17 07:43:04;;;;;;;44.60;8.98;;;;;;;6.41;98.02;104008.41;10475826;28;20045;-79
2021/12/17 07:48:18;;;;;;;52.28;9.48;;;;;;;6.41;97.78;104003.31;10468193;28;20041;-79
2021/12/17 07:53:31;;;;;;;62.63;10.20;;;;;;;6.43;98.20;104005.25;10488899;28;20040;-79
2021/12/17 07:58:38;;;;;;;51.88;8.73;;;;;;;6.43;97.93;104018.03;10459522;28;20048;-79
2021/12/17 08:03:41;;;;;;;45.75;8.43;;;;;;;6.45;98.07;104028.41;10454792;28;20095;-80
2021/12/17 08:08:56;;;;;;;53.08;8.70;;;;;;;6.42;97.84;104026.47;10471934;28;20143;-81
2021/12/17 08:14:03;;;;;;;48.55;9.40;;;;;;;6.40;98.33;104029.66;10482511;28;20044;-81
2021/12/17 08:34:42;;;;;;;44.53;8.85;;;;;;;6.51;97.88;104026.47;10472333;28;20048;-81
2021/12/17 08:39:45;;;;;;;38.90;7.43;;;;;;;6.58;97.45;104033.03;10451086;28;20051;-81
2021/12/17 08:45:02;;;;;;;53.25;8.80;;;;;;;6.62;97.73;104038.59;10480631;28;20049;-80
2021/12/17 08:50:25;;;;;;;48.63;8.73;;;;;;;6.61;98.42;104038.44;10487619;28;20399;-81
2021/12/17 08:55:31;;;;;;;37.53;8.32;;;;;;;6.60;98.06;104045.22;10466216;28;20139;-80
2021/12/17 09:00:33;;;;;;;40.20;8.38;;;;;;;6.66;97.38;104052.59;10459171;28;20124;-81
2021/12/17 09:05:43;;;;;;;35.38;8.38;;;;;;;6.74;97.62;104050.75;10453636;28;20040;-81
2021/12/17 09:10:48;;;;;;;43.83;9.38;;;;;;;6.69;97.39;104051.97;10457098;28;20049;-80
2021/12/17 09:15:55;;;;;;;48.33;8.95;;;;;;;6.78;97.10;104052.81;10461228;28;20048;-81
2021/12/17 09:21:04;;;;;;;37.22;8.57;;;;;;;6.85;96.60;104056.84;10467876;28;20053;-81
2021/12/17 09:26:39;;;;;;;;;;;;;;;6.83;96.73;104061.81;10436036;28;20045;-81
2021/12/17 09:31:41;;;;;;;36.80;8.98;;;;;;;6.85;96.64;104070.56;10471537;28;19978;-81
2021/12/17 09:36:43;;;;;;;38.97;8.45;;;;;;;6.84;96.08;104068.75;10473262;28;20049;-80
2021/12/17 09:41:50;;;;;;;37.78;8.50;;;;;;;6.98;96.27;104083.75;10470981;28;20048;-81
2021/12/17 09:46:57;;;;;;;36.50;8.60;;;;;;;7.09;95.56;104078.69;10474061;28;20080;-81
2021/12/17 09:51:59;;;;;;;37.63;8.52;;;;;;;7.06;95.18;104083.53;10454701;28;20060;-81
2021/12/17 09:57:01;;;;;;;32.33;8.05;;;;;;;7.12;95.07;104081.53;10426031;28;20484;-81
2021/12/17 10:02:03;;;;;;;33.35;7.90;;;;;;;7.28;94.67;104089.88;10464842;28;20045;-81
2021/12/17 10:07:25;;;;;;;35.75;7.50;;;;;;;7.19;94.34;104094.16;10462036;28;20045;-81
2021/12/17 10:12:36;;;;;;;31.83;8.20;;;;;;;7.30;94.28;104102.81;10446543;28;20074;-80
2021/12/17 10:18:01;;;;;;;29.85;7.88;;;;;;;7.41;93.65;104085.88;10480105;28;20091;-81
2021/12/17 10:23:07;;;;;;;31.63;7.30;;;;;;;7.48;93.32;104077.94;10430903;28;20140;-81
2021/12/17 10:28:09;;;;;;;29.77;7.30;;;;;;;7.52;92.31;104082.59;10461189;28;20479;-80
2021/12/17 10:33:17;;;;;;;32.05;7.57;;;;;;;7.67;92.10;104084.72;10462086;28;20090;-80
2021/12/17 10:38:23;;;;;;;32.55;7.82;;;;;;;7.68;91.88;104086.53;10468338;28;20519;-80
2021/12/17 10:43:35;;;;;;;28.98;7.60;;;;;;;7.77;91.49;104097.63;10471668;28;20044;-80
2021/12/17 10:54:01;;;;;;;28.25;7.68;;;;;;;7.96;91.51;104081.25;10474670;28;20048;-80
2021/12/17 10:59:06;;;;;;;28.60;7.72;;;;;;;7.92;89.36;104078.44;10488700;28;20044;-81
2021/12/17 11:04:19;;;;;;;26.15;8.35;;;;;;;8.06;90.44;104081.31;10468130;28;20049;-80
2021/12/17 11:09:39;;;;;;;24.67;6.97;;;;;;;8.04;90.06;104087.97;10457010;28;20132;-81
2021/12/17 11:14:41;;;;;;;25.03;6.87;;;;;;;8.07;88.53;104078.84;10466620;28;20407;-80
2021/12/17 11:19:44;;;;;;;19.65;7.05;;;;;;;8.16;89.15;104094.16;10456430;28;20132;-80
2021/12/17 11:24:45;;;;;;;17.13;6.47;;;;;;;8.29;87.91;104079.84;10442191;28;20060;-80
2021/12/17 11:29:47;;;;;;;18.75;6.55;;;;;;;8.15;87.11;104076.06;10462787;28;20519;-80
2021/12/17 11:34:49;;;;;;;18.83;6.22;;;;;;;8.19;87.47;104071.31;10459167;28;20052;-81
2021/12/17 11:39:56;;;;;;;15.57;5.85;;;;;;;7.97;87.81;104065.09;10454046;28;20047;-80
2021/12/17 11:50:22;;;;;;;14.15;6.15;;;;;;;8.09;86.46;104066.13;10486865;28;20048;-80
2021/12/17 11:55:34;;;;;;;16.20;6.53;;;;;;;8.06;87.66;104055.63;10449706;28;20060;-80
2021/12/17 12:00:45;;;;;;;18.27;6.10;;;;;;;8.04;86.65;104057.16;10464534;28;20041;-81
2021/12/17 12:05:50;;;;;;;18.38;6.22;;;;;;;8.18;87.02;104061.81;10495187;28;20479;-81
2021/12/17 12:11:12;;;;;;;16.48;6.55;;;;;;;8.25;86.41;104064.13;10466605;28;20040;-81
2021/12/17 12:16:19;;;;;;;18.83;7.82;;;;;;;8.22;85.25;104069.03;10461452;28;20055;-80
2021/12/17 12:21:23;;;;;;;15.48;6.75;;;;;;;8.28;86.30;104058.38;10473351;28;20036;-80
2021/12/17 12:26:38;;;;;;;15.65;6.70;;;;;;;8.10;85.42;104047.41;10478126;28;20397;-80
2021/12/17 12:31:47;;;;;;;15.45;6.90;;;;;;;8.28;85.15;104042.06;10435468;28;20136;-80
2021/12/17 12:36:56;;;;;;;15.82;7.28;;;;;;;8.20;85.93;104033.69;10479506;28;20062;-81
2021/12/17 12:41:59;;;;;;;19.10;7.63;;;;;;;8.25;85.86;104025.59;10475607;28;20057;-80
2021/12/17 12:47:01;;;;;;;19.27;7.75;;;;;;;8.35;86.84;104034.13;10494961;28;20491;-80
2021/12/17 12:52:29;;;;;;;13.32;7.18;;;;;;;8.29;85.39;104038.72;10468573;28;20147;-80
2021/12/17 12:57:41;;;;;;;16.77;8.13;;;;;;;8.48;85.89;104026.69;10472110;28;20049;-80
2021/12/17 13:02:46;;;;;;;17.83;7.55;;;;;;;8.34;84.30;104037.44;10472745;28;20045;-80
2021/12/17 13:07:50;;;;;;;16.48;7.38;;;;;;;8.37;84.41;104024.88;10426622;28;20103;-80
2021/12/17 13:13:02;;;;;;;11.60;7.05;;;;;;;8.30;82.16;104032.84;10468079;28;20041;-80
2021/12/17 13:23:47;;;;;;;15.63;7.30;;;;;;;8.35;82.54;104018.69;10472578;28;20406;-80
2021/12/17 13:29:01;;;;;;;10.73;6.60;;;;;;;8.35;82.21;104017.00;10466028;28;20048;-80
2021/12/17 13:34:27;;;;;;;11.65;6.80;;;;;;;8.35;81.89;104013.56;10490712;28;20048;-80
2021/12/17 13:39:49;;;;;;;11.18;7.10;;;;;;;8.52;83.23;104003.09;10459696;28;20056;-81
2021/12/17 13:44:59;;;;;;;14.20;7.30;;;;;;;8.47;82.69;104012.06;10483055;28;20056;-80
2021/12/17 13:50:20;;;;;;;14.35;7.30;;;;;;;8.42;82.40;104008.16;10459441;28;20122;-80
2021/12/17 13:55:25;;;;;;;11.35;7.03;;;;;;;8.38;82.07;104014.72;10475063;28;20441;-81
2021/12/17 14:00:36;;;;;;;9.93;6.63;;;;;;;8.46;82.43;104012.78;10458420;28;20140;-80
2021/12/17 14:05:40;;;;;;;10.25;6.38;;;;;;;8.28;82.90;104011.25;10482964;28;20052;-80
2021/12/17 14:10:43;;;;;;;12.80;6.43;;;;;;;8.27;82.62;104020.59;10487971;28;20124;-80
2021/12/17 14:15:45;;;;;;;12.73;6.43;;;;;;;8.22;82.46;104017.66;10458514;28;20076;-80
2021/12/17 14:21:05;;;;;;;11.20;6.72;;;;;;;8.28;82.70;104022.41;10466747;28;20083;-81
2021/12/17 14:26:08;;;;;;;12.13;6.65;;;;;;;8.17;83.93;104024.06;10456089;28;20045;-80
2021/12/17 14:31:15;;;;;;;11.45;6.72;;;;;;;8.15;83.44;104014.41;10441757;28;20044;-81
2021/12/17 14:36:19;;;;;;;10.40;6.60;;;;;;;8.11;84.07;104002.97;10469945;28;20079;-81
2021/12/17 14:41:45;;;;;;;11.30;6.00;;;;;;;8.14;84.20;104012.63;10461713;28;20060;-81
2021/12/17 14:47:02;;;;;;;8.98;5.85;;;;;;;8.10;84.58;104004.66;10483028;28;20135;-81
2021/12/17 15:00:05;;;;;;;10.40;6.88;;;;;;;8.08;85.00;104011.31;10473193;28;20060;-81
2021/12/17 15:04:13;;;;;;;12.55;6.43;;;;;;;7.99;85.85;104002.81;10481802;28;20065;-81
2021/12/17 15:09:15;;;;;;;10.05;6.70;;;;;;;7.97;86.06;104008.59;10446210;28;20082;-82
2021/12/17 15:14:16;;;;;;;11.88;6.68;;;;;;;8.00;86.11;104003.75;10446207;28;20056;-81
2021/12/17 15:19:18;;;;;;;11.32;6.45;;;;;;;7.93;86.11;103998.03;10459116;28;20052;-81
2021/12/17 15:24:19;;;;;;;11.85;6.82;;;;;;;8.01;86.58;104005.50;10470284;28;20044;-81
2021/12/17 15:29:24;;;;;;;13.15;7.13;;;;;;;7.92;86.20;103991.13;10455752;28;20071;-81
2021/12/17 15:34:28;;;;;;;10.20;7.40;;;;;;;7.93;85.93;104002.28;10476705;28;20057;-81
2021/12/17 15:39:30;;;;;;;12.25;7.85;;;;;;;7.90;85.98;104000.38;10497780;28;20383;-81
2021/12/17 15:44:32;;;;;;;12.85;8.25;;;;;;;7.87;86.03;103997.53;10497256;28;20409;-81
2021/12/17 15:49:35;;;;;;;13.95;9.27;;;;;;;7.86;85.53;103995.72;10460533;28;20132;-81
2021/12/17 15:54:37;;;;;;;15.57;9.57;;;;;;;7.84;85.64;104006.63;10465631;28;20059;-81
2021/12/17 15:59:39;;;;;;;15.23;9.65;;;;;;;7.83;85.90;104013.44;10482822;28;20048;-81
2021/12/17 16:04:44;;;;;;;12.82;9.07;;;;;;;7.86;86.14;104018.81;10471503;28;20047;-80
2021/12/17 16:25:28;;;;;;;14.60;9.60;;;;;;;7.87;86.30;104023.19;10474798;28;20048;-81
2021/12/17 16:30:30;;;;;;;13.70;9.90;;;;;;;7.98;86.28;104026.69;10471894;28;20044;-81
2021/12/17 16:36:01;;;;;;;13.57;9.75;;;;;;;7.97;86.26;104034.28;10457777;28;20522;-81
2021/12/17 16:41:05;;;;;;;14.30;9.02;;;;;;;7.86;86.99;104036.78;10490815;28;20037;-81
2021/12/17 16:51:14;;;;;;;14.75;10.00;;;;;;;7.85;87.05;104027.31;10493850;28;20036;-81
2021/12/17 16:56:18;;;;;;;18.02;9.98;;;;;;;7.93;86.59;104033.09;10490831;28;20103;-82
2021/12/17 17:01:27;;;;;;;14.75;10.00;;;;;;;7.85;86.61;104024.75;10482161;28;20041;-81
2021/12/17 17:06:29;;;;;;;19.20;10.88;;;;;;;7.91;87.00;104029.50;10475083;28;20049;-81
2021/12/17 17:11:33;;;;;;;18.50;10.40;;;;;;;7.90;86.62;104026.03;10470730;28;20036;-81
2021/12/17 17:16:36;;;;;;;15.10;10.10;;;;;;;7.93;86.82;104034.00;10469042;28;20060;-82
2021/12/17 17:21:44;;;;;;;14.88;10.25;;;;;;;7.70;88.91;104033.66;10500832;28;20041;-81
2021/12/17 17:26:46;;;;;;;15.23;10.52;;;;;;;7.81;88.79;104026.91;10484634;28;20052;-81
2021/12/17 17:31:48;;;;;;;25.63;11.40;;;;;;;7.61;89.11;104032.09;10503367;28;20494;-81
2021/12/17 17:36:55;;;;;;;16.33;9.95;;;;;;;7.56;89.53;104032.44;10487864;28;20072;-81
2021/12/17 17:41:59;;;;;;;18.10;10.80;;;;;;;7.54;89.88;104032.31;10482330;28;20051;-81
2021/12/17 17:47:01;;;;;;;17.75;10.85;;;;;;;7.54;90.38;104018.56;10482764;28;20513;-81
2021/12/17 17:52:15;;;;;;;19.10;10.68;;;;;;;7.54;90.38;104011.78;10457437;28;20037;-81
2021/12/17 17:57:19;;;;;;;17.70;9.52;;;;;;;7.53;90.81;104025.38;10484631;28;20076;-81
2021/12/17 18:02:26;;;;;;;16.90;9.38;;;;;;;7.49;91.24;104013.03;10482919;28;20527;-81
2021/12/17 18:07:28;;;;;;;14.63;9.10;;;;;;;7.51;91.43;104010.63;10453948;28;20565;-81
2021/12/17 18:12:30;;;;;;;16.33;9.18;;;;;;;7.52;91.30;104027.81;10482722;28;20072;-81
2021/12/17 18:18:01;;;;;;;18.95;8.40;;;;;;;7.50;91.69;104025.09;10482590;28;20048;-81
2021/12/17 18:29:32;;;;;;;15.43;8.63;;;;;;;7.50;92.35;104030.22;10495954;28;20033;-81
2021/12/17 18:34:34;;;;;;;15.90;8.77;;;;;;;7.42;92.76;104036.31;10477670;28;20123;-81
2021/12/17 18:39:59;;;;;;;17.05;9.02;;;;;;;7.40;92.92;104033.63;10495826;28;20048;-81
2021/12/17 18:45:03;;;;;;;15.73;9.13;;;;;;;7.36;93.27;104030.66;10455624;28;20044;-81
2021/12/17 18:50:08;;;;;;;14.60;8.45;;;;;;;7.37;93.72;104040.16;10468521;28;20048;-81
2021/12/17 18:55:10;;;;;;;15.18;8.82;;;;;;;7.36;93.84;104046.06;10491872;28;20143;-81
2021/12/17 19:00:12;;;;;;;16.02;9.70;;;;;;;7.37;94.25;104042.72;10473106;28;20136;-81
2021/12/17 19:05:14;;;;;;;18.65;9.32;;;;;;;7.41;94.31;104049.94;10471478;28;20116;-81
2021/12/17 19:10:16;;;;;;;20.52;10.35;;;;;;;7.43;94.07;104051.88;10469549;28;20053;-81
2021/12/17 19:15:19;;;;;;;18.33;10.13;;;;;;;7.46;94.11;104051.25;10475084;28;20145;-81
2021/12/17 19:20:33;;;;;;;18.90;9.93;;;;;;;7.55;93.68;104049.50;10469596;28;20049;-82
2021/12/17 19:25:36;;;;;;;17.83;11.05;;;;;;;7.51;93.61;104056.78;10456130;28;20053;-81
2021/12/17 19:30:39;;;;;;;18.73;9.98;;;;;;;7.47;93.55;104050.50;10474658;28;20048;-81
2021/12/17 19:35:41;;;;;;;18.70;10.30;;;;;;;7.41;94.20;104050.84;10491965;28;20055;-81
2021/12/17 19:40:43;;;;;;;17.83;10.00;;;;;;;7.51;94.38;104042.28;10480982;28;20049;-81
2021/12/17 19:45:45;;;;;;;24.20;10.25;;;;;;;7.37;94.61;104042.72;10476799;28;20045;-81
2021/12/17 19:50:46;;;;;;;19.83;9.52;;;;;;;7.38;95.07;104026.56;10471903;28;20166;-81
2021/12/17 19:55:50;;;;;;;21.58;11.20;;;;;;;7.41;95.07;104039.69;10467523;28;20056;-81
2021/12/17 20:00:53;;;;;;;18.52;9.63;;;;;;;7.41;95.27;104034.56;10459005;28;20262;-81
2021/12/17 20:05:58;;;;;;;20.08;9.43;;;;;;;7.29;95.31;104030.13;10488531;28;20045;-81
2021/12/17 20:11:00;;;;;;;18.48;8.95;;;;;;;7.45;94.73;104041.75;10465849;28;20032;-81
2021/12/17 20:16:04;;;;;;;19.58;9.80;;;;;;;7.54;94.41;104037.44;10466293;28;20404;-81
2021/12/17 20:21:07;;;;;;;20.40;9.52;;;;;;;7.41;94.91;104029.44;10490145;28;20058;-81
2021/12/17 20:26:09;;;;;;;22.80;9.77;;;;;;;7.47;94.45;104040.22;10458826;28;20045;-82
2021/12/17 20:31:15;;;;;;;19.27;9.23;;;;;;;7.48;94.98;104042.03;10466273;28;20075;-81
2021/12/17 20:36:20;;;;;;;18.23;9.40;;;;;;;7.35;94.61;104046.81;10452553;28;20055;-81
2021/12/17 20:41:25;;;;;;;18.83;8.95;;;;;;;7.24;95.32;104046.75;10467389;28;20063;-82
2021/12/17 20:46:27;;;;;;;21.35;9.05;;;;;;;7.20;95.65;104047.22;10485186;28;20420;-81
2021/12/17 20:51:30;;;;;;;18.83;8.50;;;;;;;7.23;95.88;104044.97;10456359;28;20098;-81
2021/12/17 20:56:32;;;;;;;19.52;8.80;;;;;;;7.21;95.86;104046.47;10474421;28;20041;-81
2021/12/17 21:01:36;;;;;;;26.63;9.13;;;;;;;7.19;96.25;104048.00;10480993;28;20044;-81
2021/12/17 21:06:38;;;;;;;20.83;9.05;;;;;;;7.19;96.05;104050.56;10483077;28;20143;-81
2021/12/17 21:11:46;;;;;;;22.52;9.27;;;;;;;7.23;96.31;104047.53;10476859;28;20049;-81
2021/12/17 21:16:51;;;;;;;19.98;9.45;;;;;;;7.21;96.34;104049.03;10467934;28;20362;-82
2021/12/17 21:21:54;;;;;;;19.67;8.95;;;;;;;7.18;96.36;104050.44;10482670;28;20045;-82
2021/12/17 21:26:56;;;;;;;19.15;8.90;;;;;;;7.16;96.27;104042.59;10484602;28;20056;-82
2021/12/17 21:32:05;;;;;;;20.73;8.70;;;;;;;7.18;96.05;104045.28;10484517;28;20041;-81
2021/12/17 21:37:07;;;;;;;18.80;8.00;;;;;;;7.10;96.51;104042.06;10481386;28;20044;-81
2021/12/17 21:42:09;;;;;;;18.52;8.40;;;;;;;7.11;96.00;104049.88;10461644;28;20403;-82
2021/12/17 21:47:11;;;;;;;18.27;7.80;;;;;;;7.13;96.11;104053.50;10462183;28;20173;-81
2021/12/17 21:52:12;;;;;;;15.25;6.53;;;;;;;7.10;96.50;104062.56;10489946;28;20044;-81
2021/12/17 21:57:14;;;;;;;16.17;6.80;;;;;;;7.14;96.45;104056.94;10473807;28;20036;-81
2021/12/17 22:02:21;;;;;;;13.63;5.70;;;;;;;7.11;95.47;104059.25;10493672;28;20132;-82
2021/12/17 22:07:23;;;;;;;12.27;5.75;;;;;;;7.04;95.73;104056.84;10467866;28;20048;-81
2021/12/17 22:12:39;;;;;;;16.50;5.97;;;;;;;7.08;95.20;104053.81;10468738;28;20044;-81
2021/12/17 22:17:42;;;;;;;11.18;4.55;;;;;;;7.05;94.97;104054.44;10473794;28;20048;-81
2021/12/17 22:22:44;;;;;;;10.27;4.53;;;;;;;7.06;94.33;104056.25;10471456;28;20435;-82
2021/12/17 22:27:46;;;;;;;12.68;5.43;;;;;;;7.04;94.06;104046.59;10469360;28;20507;-81
2021/12/17 22:32:57;;;;;;;10.38;4.53;;;;;;;7.09;93.96;104037.69;10479077;28;20117;-81
2021/12/17 22:38:02;;;;;;;10.43;4.45;;;;;;;7.12;93.25;104041.44;10461597;28;20463;-81
2021/12/17 22:43:10;;;;;;;10.35;4.43;;;;;;;7.11;93.30;104054.13;10497148;28;20040;-81
2021/12/17 22:48:13;;;;;;;10.07;4.75;;;;;;;7.09;93.88;104050.50;10477771;28;20056;-81
2021/12/17 22:53:15;;;;;;;9.95;4.65;;;;;;;7.04;93.71;104051.72;10471939;28;20093;-81
2021/12/17 22:58:17;;;;;;;10.23;4.45;;;;;;;7.11;94.12;104043.84;10472032;28;20048;-81
2021/12/17 23:03:22;;;;;;;9.93;4.75;;;;;;;7.17;94.28;104046.06;10471559;28;20060;-81
2021/12/17 23:08:44;;;;;;;12.15;5.03;;;;;;;7.09;94.13;104040.25;10494373;28;20565;-81
2021/12/17 23:13:45;;;;;;;9.82;4.50;;;;;;;7.25;94.03;104038.31;10477745;28;20033;-82
2021/12/17 23:18:47;;;;;;;10.32;5.22;;;;;;;7.30;94.27;104034.47;10459010;28;20170;-82
2021/12/17 23:23:50;;;;;;;12.40;5.00;;;;;;;7.25;93.57;104022.94;10462115;28;20483;-82
2021/12/17 23:28:54;;;;;;;10.90;4.80;;;;;;;7.15;94.73;104036.56;10474546;28;20044;-81
2021/12/17 23:34:05;;;;;;;11.65;4.80;;;;;;;7.19;94.51;104011.19;10479281;28;21926;-82
2021/12/17 23:39:10;;;;;;;12.98;5.07;;;;;;;7.19;94.70;104006.97;10473383;28;20059;-82
2021/12/17 23:44:11;;;;;;;10.85;4.90;;;;;;;7.20;94.57;104008.75;10483463;28;20052;-82
2021/12/17 23:49:15;;;;;;;12.75;5.25;;;;;;;7.20;94.48;104013.91;10490800;28;20079;-82
2021/12/17 23:54:17;;;;;;;10.18;5.28;;;;;;;7.18;94.42;104006.84;10493408;28;20497;-82
2021/12/17 23:59:18;;;;;;;19.30;5.57;;;;;;;7.23;94.72;103998.78;10458915;28;20036;-82
